sensor_id;sensor_type;location;lat;lon;timestamp;temperature;humidity
29849;DHT22;16728;50.832;5.590;2023-08-06T00:02:37;16.30;99.90
29849;DHT22;16728;50.832;5.590;2023-08-06T00:05:42;16.30;99.90
29849;DHT22;16728;50.832;5.590;2023-08-06T00:08:44;16.30;99.90
29849;DHT22;16728;50.832;5.590;2023-08-06T00:11:46;16.30;99.90
29849;DHT22;16728;50.832;5.590;2023-08-06T00:14:52;16.30;99.90
29849;DHT22;16728;50.832;5.590;2023-08-06T00:17:54;16.30;99.90
29849;DHT22;16728;50.832;5.590;2023-08-06T00:20:56;16.30;99.90
29849;DHT22;16728;50.832;5.590;2023-08-06T00:23:58;16.20;99.90
29849;DHT22;16728;50.832;5.590;2023-08-06T00:27:00;16.30;99.90
29849;DHT22;16728;50.832;5.590;2023-08-06T00:30:02;16.20;99.90
29849;DHT22;16728;50.832;5.590;2023-08-06T00:33:04;16.30;99.90
29849;DHT22;16728;50.832;5.590;2023-08-06T00:36:06;16.30;99.90
29849;DHT22;16728;50.832;5.590;2023-08-06T00:39:08;16.20;99.90
29849;DHT22;16728;50.832;5.590;2023-08-06T00:42:10;16.20;99.90
29849;DHT22;16728;50.832;5.590;2023-08-06T00:45:12;16.20;99.90
29849;DHT22;16728;50.832;5.590;2023-08-06T00:48:15;16.30;99.90
29849;DHT22;16728;50.832;5.590;2023-08-06T00:51:17;16.30;99.90
29849;DHT22;16728;50.832;5.590;2023-08-06T00:54:19;16.20;99.90
29849;DHT22;16728;50.832;5.590;2023-08-06T00:57:24;16.20;99.90
29849;DHT22;16728;50.832;5.590;2023-08-06T01:00:27;16.20;99.90
29849;DHT22;16728;50.832;5.590;2023-08-06T01:03:29;16.20;99.90
29849;DHT22;16728;50.832;5.590;2023-08-06T01:07:05;16.20;99.90
29849;DHT22;16728;50.832;5.590;2023-08-06T01:10:19;16.20;99.90
29849;DHT22;16728;50.832;5.590;2023-08-06T01:13:44;16.20;99.90
29849;DHT22;16728;50.832;5.590;2023-08-06T01:16:50;16.10;99.90
29849;DHT22;16728;50.832;5.590;2023-08-06T01:19:53;16.20;99.90
29849;DHT22;16728;50.832;5.590;2023-08-06T01:22:55;16.10;99.90
29849;DHT22;16728;50.832;5.590;2023-08-06T01:29:51;16.00;99.90
29849;DHT22;16728;50.832;5.590;2023-08-06T01:32:58;16.00;99.90
29849;DHT22;16728;50.832;5.590;2023-08-06T01:36:02;16.10;99.90
29849;DHT22;16728;50.832;5.590;2023-08-06T01:39:05;16.00;99.90
29849;DHT22;16728;50.832;5.590;2023-08-06T01:42:07;16.00;99.90
29849;DHT22;16728;50.832;5.590;2023-08-06T01:45:10;16.00;99.90
29849;DHT22;16728;50.832;5.590;2023-08-06T01:48:12;16.10;99.90
29849;DHT22;16728;50.832;5.590;2023-08-06T01:51:14;16.10;99.90
29849;DHT22;16728;50.832;5.590;2023-08-06T01:54:16;16.10;99.90
29849;DHT22;16728;50.832;5.590;2023-08-06T01:57:18;16.10;99.90
29849;DHT22;16728;50.832;5.590;2023-08-06T02:00:19;16.10;99.90
29849;DHT22;16728;50.832;5.590;2023-08-06T02:03:21;16.10;99.90
29849;DHT22;16728;50.832;5.590;2023-08-06T02:06:23;16.10;99.90
29849;DHT22;16728;50.832;5.590;2023-08-06T02:09:25;16.20;99.90
29849;DHT22;16728;50.832;5.590;2023-08-06T02:12:27;16.10;99.90
29849;DHT22;16728;50.832;5.590;2023-08-06T02:15:29;16.10;99.90
29849;DHT22;16728;50.832;5.590;2023-08-06T02:18:31;16.00;99.90
29849;DHT22;16728;50.832;5.590;2023-08-06T02:21:33;16.10;99.90
29849;DHT22;16728;50.832;5.590;2023-08-06T02:24:35;16.10;99.90
29849;DHT22;16728;50.832;5.590;2023-08-06T02:27:37;16.10;99.90
29849;DHT22;16728;50.832;5.590;2023-08-06T02:30:39;16.10;99.90
29849;DHT22;16728;50.832;5.590;2023-08-06T02:33:41;16.10;99.90
29849;DHT22;16728;50.832;5.590;2023-08-06T02:36:43;16.10;99.90
29849;DHT22;16728;50.832;5.590;2023-08-06T02:39:45;16.10;99.90
29849;DHT22;16728;50.832;5.590;2023-08-06T02:42:47;16.00;99.90
29849;DHT22;16728;50.832;5.590;2023-08-06T02:45:49;16.10;99.90
29849;DHT22;16728;50.832;5.590;2023-08-06T02:48:51;16.10;99.90
29849;DHT22;16728;50.832;5.590;2023-08-06T02:51:53;16.00;99.90
29849;DHT22;16728;50.832;5.590;2023-08-06T02:54:55;16.00;99.90
29849;DHT22;16728;50.832;5.590;2023-08-06T02:57:57;16.00;99.90
29849;DHT22;16728;50.832;5.590;2023-08-06T03:01:06;16.00;99.90
29849;DHT22;16728;50.832;5.590;2023-08-06T03:04:09;16.00;99.90
29849;DHT22;16728;50.832;5.590;2023-08-06T03:07:11;16.00;99.90
29849;DHT22;16728;50.832;5.590;2023-08-06T03:10:13;16.00;99.90
29849;DHT22;16728;50.832;5.590;2023-08-06T03:13:16;16.00;99.90
29849;DHT22;16728;50.832;5.590;2023-08-06T03:16:18;16.00;99.90
29849;DHT22;16728;50.832;5.590;2023-08-06T03:19:20;16.00;99.90
29849;DHT22;16728;50.832;5.590;2023-08-06T03:22:21;16.00;99.90
29849;DHT22;16728;50.832;5.590;2023-08-06T03:25:23;16.10;99.90
29849;DHT22;16728;50.832;5.590;2023-08-06T03:28:25;16.00;99.90
29849;DHT22;16728;50.832;5.590;2023-08-06T03:31:27;16.10;99.90
29849;DHT22;16728;50.832;5.590;2023-08-06T03:34:29;16.00;99.90
29849;DHT22;16728;50.832;5.590;2023-08-06T03:37:31;16.10;99.90
29849;DHT22;16728;50.832;5.590;2023-08-06T03:40:35;16.10;99.90
29849;DHT22;16728;50.832;5.590;2023-08-06T03:43:37;16.10;99.90
29849;DHT22;16728;50.832;5.590;2023-08-06T03:46:39;16.00;99.90
29849;DHT22;16728;50.832;5.590;2023-08-06T03:49:41;16.10;99.90
29849;DHT22;16728;50.832;5.590;2023-08-06T03:52:43;16.10;99.90
29849;DHT22;16728;50.832;5.590;2023-08-06T03:55:45;16.10;99.90
29849;DHT22;16728;50.832;5.590;2023-08-06T03:58:47;16.10;99.90
29849;DHT22;16728;50.832;5.590;2023-08-06T04:01:48;16.00;99.90
29849;DHT22;16728;50.832;5.590;2023-08-06T04:04:51;16.00;99.90
29849;DHT22;16728;50.832;5.590;2023-08-06T04:07:55;16.00;99.90
29849;DHT22;16728;50.832;5.590;2023-08-06T04:10:57;16.00;99.90
29849;DHT22;16728;50.832;5.590;2023-08-06T04:13:59;16.00;99.90
29849;DHT22;16728;50.832;5.590;2023-08-06T04:17:01;16.00;99.90
29849;DHT22;16728;50.832;5.590;2023-08-06T04:20:03;15.90;99.90
29849;DHT22;16728;50.832;5.590;2023-08-06T04:23:06;16.00;99.90
29849;DHT22;16728;50.832;5.590;2023-08-06T04:26:08;15.90;99.90
29849;DHT22;16728;50.832;5.590;2023-08-06T04:29:10;15.90;99.90
29849;DHT22;16728;50.832;5.590;2023-08-06T04:32:12;15.90;99.90
29849;DHT22;16728;50.832;5.590;2023-08-06T04:35:14;15.80;99.90
29849;DHT22;16728;50.832;5.590;2023-08-06T04:38:16;15.90;99.90
29849;DHT22;16728;50.832;5.590;2023-08-06T04:41:18;15.90;99.90
29849;DHT22;16728;50.832;5.590;2023-08-06T04:44:20;15.90;99.90
29849;DHT22;16728;50.832;5.590;2023-08-06T04:47:22;15.90;99.90
29849;DHT22;16728;50.832;5.590;2023-08-06T04:50:25;16.00;99.90
29849;DHT22;16728;50.832;5.590;2023-08-06T04:53:27;15.90;99.90
29849;DHT22;16728;50.832;5.590;2023-08-06T04:56:29;15.90;99.90
29849;DHT22;16728;50.832;5.590;2023-08-06T04:59:31;15.90;99.90
29849;DHT22;16728;50.832;5.590;2023-08-06T05:02:33;15.90;99.90
29849;DHT22;16728;50.832;5.590;2023-08-06T05:05:36;15.90;99.90
29849;DHT22;16728;50.832;5.590;2023-08-06T05:08:38;15.90;99.90
29849;DHT22;16728;50.832;5.590;2023-08-06T05:11:40;15.80;99.90
29849;DHT22;16728;50.832;5.590;2023-08-06T05:14:42;15.90;99.90
29849;DHT22;16728;50.832;5.590;2023-08-06T05:17:44;15.80;99.90
29849;DHT22;16728;50.832;5.590;2023-08-06T05:20:46;15.80;99.90
29849;DHT22;16728;50.832;5.590;2023-08-06T05:23:48;15.90;99.90
29849;DHT22;16728;50.832;5.590;2023-08-06T05:26:50;15.90;99.90
29849;DHT22;16728;50.832;5.590;2023-08-06T05:29:55;15.90;99.90
29849;DHT22;16728;50.832;5.590;2023-08-06T05:32:57;15.90;99.90
29849;DHT22;16728;50.832;5.590;2023-08-06T05:35:59;15.90;99.90
29849;DHT22;16728;50.832;5.590;2023-08-06T05:39:01;15.90;99.90
29849;DHT22;16728;50.832;5.590;2023-08-06T05:42:04;15.90;99.90
29849;DHT22;16728;50.832;5.590;2023-08-06T05:45:06;15.90;99.90
29849;DHT22;16728;50.832;5.590;2023-08-06T05:48:08;15.90;99.90
29849;DHT22;16728;50.832;5.590;2023-08-06T05:51:10;15.90;99.90
29849;DHT22;16728;50.832;5.590;2023-08-06T05:54:14;16.00;99.90
29849;DHT22;16728;50.832;5.590;2023-08-06T05:57:16;16.00;99.90
29849;DHT22;16728;50.832;5.590;2023-08-06T06:00:19;16.00;99.90
29849;DHT22;16728;50.832;5.590;2023-08-06T06:03:21;15.90;99.90
29849;DHT22;16728;50.832;5.590;2023-08-06T06:06:25;15.90;99.90
29849;DHT22;16728;50.832;5.590;2023-08-06T06:09:27;15.90;99.90
29849;DHT22;16728;50.832;5.590;2023-08-06T06:12:29;16.00;99.90
29849;DHT22;16728;50.832;5.590;2023-08-06T06:15:31;15.90;99.90
29849;DHT22;16728;50.832;5.590;2023-08-06T06:18:33;15.90;99.90
29849;DHT22;16728;50.832;5.590;2023-08-06T06:21:35;15.90;99.90
29849;DHT22;16728;50.832;5.590;2023-08-06T06:24:37;15.80;99.90
29849;DHT22;16728;50.832;5.590;2023-08-06T06:27:39;15.90;99.90
29849;DHT22;16728;50.832;5.590;2023-08-06T06:30:42;15.80;99.90
29849;DHT22;16728;50.832;5.590;2023-08-06T06:33:45;15.90;99.90
29849;DHT22;16728;50.832;5.590;2023-08-06T06:36:48;15.90;99.90
29849;DHT22;16728;50.832;5.590;2023-08-06T06:39:50;15.80;99.90
29849;DHT22;16728;50.832;5.590;2023-08-06T06:42:52;15.80;99.90
29849;DHT22;16728;50.832;5.590;2023-08-06T06:45:56;15.80;99.90
29849;DHT22;16728;50.832;5.590;2023-08-06T06:49:01;15.80;99.90
29849;DHT22;16728;50.832;5.590;2023-08-06T06:52:04;15.70;99.90
29849;DHT22;16728;50.832;5.590;2023-08-06T06:55:06;15.70;99.90
29849;DHT22;16728;50.832;5.590;2023-08-06T06:58:08;15.70;99.90
29849;DHT22;16728;50.832;5.590;2023-08-06T07:01:10;15.60;99.90
29849;DHT22;16728;50.832;5.590;2023-08-06T07:04:13;15.60;99.90
29849;DHT22;16728;50.832;5.590;2023-08-06T07:07:15;15.50;99.90
29849;DHT22;16728;50.832;5.590;2023-08-06T07:10:17;15.50;99.90
29849;DHT22;16728;50.832;5.590;2023-08-06T07:13:19;15.50;99.90
29849;DHT22;16728;50.832;5.590;2023-08-06T07:16:21;15.40;99.90
29849;DHT22;16728;50.832;5.590;2023-08-06T07:19:23;15.30;99.90
29849;DHT22;16728;50.832;5.590;2023-08-06T07:22:25;15.30;99.90
29849;DHT22;16728;50.832;5.590;2023-08-06T07:25:27;15.30;99.90
29849;DHT22;16728;50.832;5.590;2023-08-06T07:28:30;15.20;99.90
29849;DHT22;16728;50.832;5.590;2023-08-06T07:31:35;15.30;99.90
29849;DHT22;16728;50.832;5.590;2023-08-06T07:34:37;15.20;99.90
29849;DHT22;16728;50.832;5.590;2023-08-06T07:37:39;15.20;99.90
29849;DHT22;16728;50.832;5.590;2023-08-06T07:40:42;15.20;99.90
29849;DHT22;16728;50.832;5.590;2023-08-06T07:43:44;15.20;99.90
29849;DHT22;16728;50.832;5.590;2023-08-06T07:46:49;15.30;99.90
29849;DHT22;16728;50.832;5.590;2023-08-06T07:49:51;15.30;99.90
29849;DHT22;16728;50.832;5.590;2023-08-06T07:52:53;15.20;99.90
29849;DHT22;16728;50.832;5.590;2023-08-06T07:55:55;15.20;99.90
29849;DHT22;16728;50.832;5.590;2023-08-06T07:58:57;15.20;99.90
29849;DHT22;16728;50.832;5.590;2023-08-06T08:01:59;15.30;99.90
29849;DHT22;16728;50.832;5.590;2023-08-06T08:05:01;15.30;99.90
29849;DHT22;16728;50.832;5.590;2023-08-06T08:08:03;15.30;99.90
29849;DHT22;16728;50.832;5.590;2023-08-06T08:11:06;15.30;99.90
29849;DHT22;16728;50.832;5.590;2023-08-06T08:14:08;15.30;99.90
29849;DHT22;16728;50.832;5.590;2023-08-06T08:17:10;15.20;99.90
29849;DHT22;16728;50.832;5.590;2023-08-06T08:20:13;15.20;99.90
29849;DHT22;16728;50.832;5.590;2023-08-06T08:23:15;15.30;99.90
29849;DHT22;16728;50.832;5.590;2023-08-06T08:26:17;15.30;99.90
29849;DHT22;16728;50.832;5.590;2023-08-06T08:29:20;15.40;99.90
29849;DHT22;16728;50.832;5.590;2023-08-06T08:32:23;15.50;99.90
29849;DHT22;16728;50.832;5.590;2023-08-06T08:35:25;15.40;99.90
29849;DHT22;16728;50.832;5.590;2023-08-06T08:38:27;15.40;99.90
29849;DHT22;16728;50.832;5.590;2023-08-06T08:41:31;15.40;99.90
29849;DHT22;16728;50.832;5.590;2023-08-06T08:44:32;15.50;99.90
29849;DHT22;16728;50.832;5.590;2023-08-06T08:47:35;15.50;99.90
29849;DHT22;16728;50.832;5.590;2023-08-06T08:50:39;15.50;99.90
29849;DHT22;16728;50.832;5.590;2023-08-06T08:53:42;15.60;99.90
29849;DHT22;16728;50.832;5.590;2023-08-06T08:56:45;15.70;99.90
29849;DHT22;16728;50.832;5.590;2023-08-06T08:59:47;15.70;99.90
29849;DHT22;16728;50.832;5.590;2023-08-06T09:02:50;15.70;99.90
29849;DHT22;16728;50.832;5.590;2023-08-06T09:05:54;15.70;99.90
29849;DHT22;16728;50.832;5.590;2023-08-06T09:09:13;15.70;99.90
29849;DHT22;16728;50.832;5.590;2023-08-06T09:12:17;15.70;99.90
29849;DHT22;16728;50.832;5.590;2023-08-06T09:15:20;15.70;99.90
29849;DHT22;16728;50.832;5.590;2023-08-06T09:18:26;15.70;99.90
29849;DHT22;16728;50.832;5.590;2023-08-06T09:21:31;15.60;99.90
29849;DHT22;16728;50.832;5.590;2023-08-06T09:24:38;15.60;99.90
29849;DHT22;16728;50.832;5.590;2023-08-06T09:27:41;15.60;99.90
29849;DHT22;16728;50.832;5.590;2023-08-06T09:30:48;15.60;99.90
29849;DHT22;16728;50.832;5.590;2023-08-06T09:33:50;15.60;99.90
29849;DHT22;16728;50.832;5.590;2023-08-06T09:36:53;15.50;99.90
29849;DHT22;16728;50.832;5.590;2023-08-06T09:39:58;15.50;99.90
29849;DHT22;16728;50.832;5.590;2023-08-06T09:43:00;15.50;99.90
29849;DHT22;16728;50.832;5.590;2023-08-06T09:46:15;15.50;99.90
29849;DHT22;16728;50.832;5.590;2023-08-06T09:49:19;15.50;99.90
29849;DHT22;16728;50.832;5.590;2023-08-06T09:52:24;15.60;99.90
29849;DHT22;16728;50.832;5.590;2023-08-06T09:55:27;15.60;99.90
29849;DHT22;16728;50.832;5.590;2023-08-06T09:58:31;15.60;99.90
29849;DHT22;16728;50.832;5.590;2023-08-06T10:01:35;15.60;99.90
29849;DHT22;16728;50.832;5.590;2023-08-06T10:04:37;15.60;99.90
29849;DHT22;16728;50.832;5.590;2023-08-06T10:07:43;15.50;99.90
29849;DHT22;16728;50.832;5.590;2023-08-06T10:10:46;15.60;99.90
29849;DHT22;16728;50.832;5.590;2023-08-06T10:13:50;15.60;99.90
29849;DHT22;16728;50.832;5.590;2023-08-06T10:16:54;15.60;99.90
29849;DHT22;16728;50.832;5.590;2023-08-06T10:19:59;15.60;99.90
29849;DHT22;16728;50.832;5.590;2023-08-06T10:23:03;15.50;99.90
29849;DHT22;16728;50.832;5.590;2023-08-06T10:26:06;15.50;99.90
29849;DHT22;16728;50.832;5.590;2023-08-06T10:29:36;15.50;99.90
29849;DHT22;16728;50.832;5.590;2023-08-06T10:32:48;15.50;99.90
29849;DHT22;16728;50.832;5.590;2023-08-06T10:36:01;15.50;99.90
29849;DHT22;16728;50.832;5.590;2023-08-06T10:39:03;15.50;99.90
29849;DHT22;16728;50.832;5.590;2023-08-06T10:42:22;15.50;99.90
29849;DHT22;16728;50.832;5.590;2023-08-06T10:45:28;15.50;99.90
29849;DHT22;16728;50.832;5.590;2023-08-06T10:48:38;15.50;99.90
29849;DHT22;16728;50.832;5.590;2023-08-06T10:51:41;15.50;99.90
29849;DHT22;16728;50.832;5.590;2023-08-06T10:54:43;15.50;99.90
29849;DHT22;16728;50.832;5.590;2023-08-06T10:57:45;15.50;99.90
29849;DHT22;16728;50.832;5.590;2023-08-06T11:00:47;15.50;99.90
29849;DHT22;16728;50.832;5.590;2023-08-06T11:03:49;15.50;99.90
29849;DHT22;16728;50.832;5.590;2023-08-06T11:06:52;15.50;99.90
29849;DHT22;16728;50.832;5.590;2023-08-06T11:10:04;15.40;99.90
29849;DHT22;16728;50.832;5.590;2023-08-06T11:13:06;15.40;99.90
29849;DHT22;16728;50.832;5.590;2023-08-06T11:16:10;15.40;99.90
29849;DHT22;16728;50.832;5.590;2023-08-06T11:19:12;15.30;99.90
29849;DHT22;16728;50.832;5.590;2023-08-06T11:22:17;15.30;99.90
29849;DHT22;16728;50.832;5.590;2023-08-06T11:25:20;15.40;99.90
29849;DHT22;16728;50.832;5.590;2023-08-06T11:28:24;15.30;99.90
29849;DHT22;16728;50.832;5.590;2023-08-06T11:31:26;15.30;99.90
29849;DHT22;16728;50.832;5.590;2023-08-06T11:34:28;15.30;99.90
29849;DHT22;16728;50.832;5.590;2023-08-06T11:37:30;15.30;99.90
29849;DHT22;16728;50.832;5.590;2023-08-06T11:40:32;15.30;99.90
29849;DHT22;16728;50.832;5.590;2023-08-06T11:43:34;15.20;99.90
29849;DHT22;16728;50.832;5.590;2023-08-06T11:46:55;15.30;99.90
29849;DHT22;16728;50.832;5.590;2023-08-06T11:49:58;15.20;99.90
29849;DHT22;16728;50.832;5.590;2023-08-06T11:53:01;15.20;99.90
29849;DHT22;16728;50.832;5.590;2023-08-06T11:56:03;15.20;99.90
29849;DHT22;16728;50.832;5.590;2023-08-06T11:59:05;15.10;99.90
29849;DHT22;16728;50.832;5.590;2023-08-06T12:02:09;15.10;99.90
29849;DHT22;16728;50.832;5.590;2023-08-06T12:05:13;15.10;99.90
29849;DHT22;16728;50.832;5.590;2023-08-06T12:08:16;15.20;99.90
29849;DHT22;16728;50.832;5.590;2023-08-06T12:11:21;15.30;99.90
29849;DHT22;16728;50.832;5.590;2023-08-06T12:14:24;15.30;99.90
29849;DHT22;16728;50.832;5.590;2023-08-06T12:17:26;15.30;99.90
29849;DHT22;16728;50.832;5.590;2023-08-06T12:20:28;15.40;99.90
29849;DHT22;16728;50.832;5.590;2023-08-06T12:23:30;15.40;99.90
29849;DHT22;16728;50.832;5.590;2023-08-06T12:26:35;15.40;99.90
29849;DHT22;16728;50.832;5.590;2023-08-06T12:29:48;15.40;99.90
29849;DHT22;16728;50.832;5.590;2023-08-06T12:32:50;15.40;99.90
29849;DHT22;16728;50.832;5.590;2023-08-06T12:35:53;15.40;99.90
29849;DHT22;16728;50.832;5.590;2023-08-06T12:38:56;15.40;99.90
29849;DHT22;16728;50.832;5.590;2023-08-06T12:42:03;15.40;99.90
29849;DHT22;16728;50.832;5.590;2023-08-06T12:45:11;15.40;99.90
29849;DHT22;16728;50.832;5.590;2023-08-06T12:48:12;15.40;99.90
29849;DHT22;16728;50.832;5.590;2023-08-06T12:51:15;15.30;99.90
29849;DHT22;16728;50.832;5.590;2023-08-06T12:54:17;15.30;99.90
29849;DHT22;16728;50.832;5.590;2023-08-06T12:57:20;15.30;99.90
29849;DHT22;16728;50.832;5.590;2023-08-06T13:00:21;15.40;99.90
29849;DHT22;16728;50.832;5.590;2023-08-06T13:03:23;15.30;99.90
29849;DHT22;16728;50.832;5.590;2023-08-06T13:06:25;15.30;99.90
29849;DHT22;16728;50.832;5.590;2023-08-06T13:09:27;15.40;99.90
29849;DHT22;16728;50.832;5.590;2023-08-06T13:12:33;15.40;99.90
29849;DHT22;16728;50.832;5.590;2023-08-06T13:15:35;15.40;99.90
29849;DHT22;16728;50.832;5.590;2023-08-06T13:18:37;15.40;99.90
29849;DHT22;16728;50.832;5.590;2023-08-06T13:24:47;15.40;99.90
29849;DHT22;16728;50.832;5.590;2023-08-06T13:27:50;15.30;99.90
29849;DHT22;16728;50.832;5.590;2023-08-06T13:30:52;15.30;99.90
29849;DHT22;16728;50.832;5.590;2023-08-06T13:33:55;15.40;99.90
29849;DHT22;16728;50.832;5.590;2023-08-06T13:36:57;15.30;99.90
29849;DHT22;16728;50.832;5.590;2023-08-06T13:39:59;15.30;99.90
29849;DHT22;16728;50.832;5.590;2023-08-06T13:43:01;15.20;99.90
29849;DHT22;16728;50.832;5.590;2023-08-06T13:46:03;15.20;99.90
29849;DHT22;16728;50.832;5.590;2023-08-06T13:49:05;15.20;99.90
29849;DHT22;16728;50.832;5.590;2023-08-06T13:52:07;15.20;99.90
29849;DHT22;16728;50.832;5.590;2023-08-06T13:55:22;15.20;99.90
29849;DHT22;16728;50.832;5.590;2023-08-06T13:58:24;15.20;99.90
29849;DHT22;16728;50.832;5.590;2023-08-06T14:01:27;15.20;99.90
29849;DHT22;16728;50.832;5.590;2023-08-06T14:04:49;15.20;99.90
29849;DHT22;16728;50.832;5.590;2023-08-06T14:07:51;15.10;99.90
29849;DHT22;16728;50.832;5.590;2023-08-06T14:10:53;15.10;99.90
29849;DHT22;16728;50.832;5.590;2023-08-06T14:13:55;15.20;99.90
29849;DHT22;16728;50.832;5.590;2023-08-06T14:16:57;15.20;99.90
29849;DHT22;16728;50.832;5.590;2023-08-06T14:20:00;15.10;99.90
29849;DHT22;16728;50.832;5.590;2023-08-06T14:23:02;15.20;99.90
29849;DHT22;16728;50.832;5.590;2023-08-06T14:26:04;15.10;99.90
29849;DHT22;16728;50.832;5.590;2023-08-06T14:29:06;15.10;99.90
29849;DHT22;16728;50.832;5.590;2023-08-06T14:32:08;15.10;99.90
29849;DHT22;16728;50.832;5.590;2023-08-06T14:35:10;15.10;99.90
29849;DHT22;16728;50.832;5.590;2023-08-06T14:38:12;15.10;99.90
29849;DHT22;16728;50.832;5.590;2023-08-06T14:41:13;15.10;99.90
29849;DHT22;16728;50.832;5.590;2023-08-06T14:44:15;15.10;99.90
29849;DHT22;16728;50.832;5.590;2023-08-06T14:47:20;15.10;99.90
29849;DHT22;16728;50.832;5.590;2023-08-06T14:50:23;15.10;99.90
29849;DHT22;16728;50.832;5.590;2023-08-06T14:53:25;15.10;99.90
29849;DHT22;16728;50.832;5.590;2023-08-06T14:56:27;15.10;99.90
29849;DHT22;16728;50.832;5.590;2023-08-06T14:59:29;15.10;99.90
29849;DHT22;16728;50.832;5.590;2023-08-06T15:02:31;15.10;99.90
29849;DHT22;16728;50.832;5.590;2023-08-06T15:05:33;15.10;99.90
29849;DHT22;16728;50.832;5.590;2023-08-06T15:08:35;15.10;99.90
29849;DHT22;16728;50.832;5.590;2023-08-06T15:11:38;15.10;99.90
29849;DHT22;16728;50.832;5.590;2023-08-06T15:14:40;15.00;99.90
29849;DHT22;16728;50.832;5.590;2023-08-06T15:17:42;15.00;99.90
29849;DHT22;16728;50.832;5.590;2023-08-06T15:20:45;14.90;99.90
29849;DHT22;16728;50.832;5.590;2023-08-06T15:23:47;14.90;99.90
29849;DHT22;16728;50.832;5.590;2023-08-06T15:26:49;14.90;99.90
29849;DHT22;16728;50.832;5.590;2023-08-06T15:29:50;14.90;99.90
29849;DHT22;16728;50.832;5.590;2023-08-06T15:32:52;14.80;99.90
29849;DHT22;16728;50.832;5.590;2023-08-06T15:35:54;14.80;99.90
29849;DHT22;16728;50.832;5.590;2023-08-06T15:38:56;14.80;99.90
29849;DHT22;16728;50.832;5.590;2023-08-06T15:41:58;14.80;99.90
29849;DHT22;16728;50.832;5.590;2023-08-06T15:45:00;14.80;99.90
29849;DHT22;16728;50.832;5.590;2023-08-06T15:48:03;14.80;99.90
29849;DHT22;16728;50.832;5.590;2023-08-06T15:51:05;14.80;99.90
29849;DHT22;16728;50.832;5.590;2023-08-06T15:54:07;14.80;99.90
29849;DHT22;16728;50.832;5.590;2023-08-06T15:57:09;14.70;99.90
29849;DHT22;16728;50.832;5.590;2023-08-06T16:00:12;14.70;99.90
29849;DHT22;16728;50.832;5.590;2023-08-06T16:03:14;14.70;99.90
29849;DHT22;16728;50.832;5.590;2023-08-06T16:06:16;14.80;99.90
29849;DHT22;16728;50.832;5.590;2023-08-06T16:09:18;14.80;99.90
29849;DHT22;16728;50.832;5.590;2023-08-06T16:12:20;14.80;99.90
29849;DHT22;16728;50.832;5.590;2023-08-06T16:15:22;14.80;99.90
29849;DHT22;16728;50.832;5.590;2023-08-06T16:18:26;14.80;99.90
29849;DHT22;16728;50.832;5.590;2023-08-06T16:21:28;14.80;99.90
29849;DHT22;16728;50.832;5.590;2023-08-06T16:24:30;14.80;99.90
29849;DHT22;16728;50.832;5.590;2023-08-06T16:27:32;14.70;99.90
29849;DHT22;16728;50.832;5.590;2023-08-06T16:30:34;14.80;99.90
29849;DHT22;16728;50.832;5.590;2023-08-06T16:33:36;14.80;99.90
29849;DHT22;16728;50.832;5.590;2023-08-06T16:36:41;14.80;99.90
29849;DHT22;16728;50.832;5.590;2023-08-06T16:39:43;14.70;99.90
29849;DHT22;16728;50.832;5.590;2023-08-06T16:42:45;14.80;99.90
29849;DHT22;16728;50.832;5.590;2023-08-06T16:45:47;14.70;99.90
29849;DHT22;16728;50.832;5.590;2023-08-06T16:48:49;14.80;99.90
29849;DHT22;16728;50.832;5.590;2023-08-06T16:51:54;14.70;99.90
29849;DHT22;16728;50.832;5.590;2023-08-06T16:54:55;14.70;99.90
29849;DHT22;16728;50.832;5.590;2023-08-06T16:57:57;14.70;99.90
29849;DHT22;16728;50.832;5.590;2023-08-06T17:00:59;14.70;99.90
29849;DHT22;16728;50.832;5.590;2023-08-06T17:04:06;14.70;99.90
29849;DHT22;16728;50.832;5.590;2023-08-06T17:07:08;14.60;99.90
29849;DHT22;16728;50.832;5.590;2023-08-06T17:10:11;14.60;99.90
29849;DHT22;16728;50.832;5.590;2023-08-06T17:13:13;14.60;99.90
29849;DHT22;16728;50.832;5.590;2023-08-06T17:16:21;14.60;99.90
29849;DHT22;16728;50.832;5.590;2023-08-06T17:19:24;14.60;99.90
29849;DHT22;16728;50.832;5.590;2023-08-06T17:22:26;14.60;99.90
29849;DHT22;16728;50.832;5.590;2023-08-06T17:25:28;14.60;99.90
29849;DHT22;16728;50.832;5.590;2023-08-06T17:28:32;14.60;99.90
29849;DHT22;16728;50.832;5.590;2023-08-06T17:31:33;14.60;99.90
29849;DHT22;16728;50.832;5.590;2023-08-06T17:34:35;14.60;99.90
29849;DHT22;16728;50.832;5.590;2023-08-06T17:37:37;14.60;99.90
29849;DHT22;16728;50.832;5.590;2023-08-06T17:40:39;14.60;99.90
29849;DHT22;16728;50.832;5.590;2023-08-06T17:43:42;14.60;99.90
29849;DHT22;16728;50.832;5.590;2023-08-06T17:46:44;14.70;99.90
29849;DHT22;16728;50.832;5.590;2023-08-06T17:49:46;14.70;99.90
29849;DHT22;16728;50.832;5.590;2023-08-06T17:52:49;14.70;99.90
29849;DHT22;16728;50.832;5.590;2023-08-06T17:55:51;14.70;99.90
29849;DHT22;16728;50.832;5.590;2023-08-06T17:58:53;14.70;99.90
29849;DHT22;16728;50.832;5.590;2023-08-06T18:01:55;14.70;99.90
29849;DHT22;16728;50.832;5.590;2023-08-06T18:04:57;14.70;99.90
29849;DHT22;16728;50.832;5.590;2023-08-06T18:07:59;14.70;99.90
29849;DHT22;16728;50.832;5.590;2023-08-06T18:11:01;14.70;99.90
29849;DHT22;16728;50.832;5.590;2023-08-06T18:14:03;14.70;99.90
29849;DHT22;16728;50.832;5.590;2023-08-06T18:17:06;14.70;99.90
29849;DHT22;16728;50.832;5.590;2023-08-06T18:20:08;14.70;99.90
29849;DHT22;16728;50.832;5.590;2023-08-06T18:23:10;14.70;99.90
29849;DHT22;16728;50.832;5.590;2023-08-06T18:26:12;14.80;99.90
29849;DHT22;16728;50.832;5.590;2023-08-06T18:29:14;14.80;99.90
29849;DHT22;16728;50.832;5.590;2023-08-06T18:32:16;14.80;99.90
29849;DHT22;16728;50.832;5.590;2023-08-06T18:35:18;14.80;99.90
29849;DHT22;16728;50.832;5.590;2023-08-06T18:38:20;14.80;99.90
29849;DHT22;16728;50.832;5.590;2023-08-06T18:41:22;14.70;99.90
29849;DHT22;16728;50.832;5.590;2023-08-06T18:44:24;14.70;99.90
29849;DHT22;16728;50.832;5.590;2023-08-06T18:47:27;14.70;99.90
29849;DHT22;16728;50.832;5.590;2023-08-06T18:50:29;14.70;99.90
29849;DHT22;16728;50.832;5.590;2023-08-06T18:53:37;14.60;99.90
29849;DHT22;16728;50.832;5.590;2023-08-06T18:56:39;14.60;99.90
29849;DHT22;16728;50.832;5.590;2023-08-06T18:59:40;14.60;99.90
29849;DHT22;16728;50.832;5.590;2023-08-06T19:02:42;14.60;99.90
29849;DHT22;16728;50.832;5.590;2023-08-06T19:05:44;14.60;99.90
29849;DHT22;16728;50.832;5.590;2023-08-06T19:08:46;14.60;99.90
29849;DHT22;16728;50.832;5.590;2023-08-06T19:11:48;14.50;99.90
29849;DHT22;16728;50.832;5.590;2023-08-06T19:14:50;14.50;99.90
29849;DHT22;16728;50.832;5.590;2023-08-06T19:17:53;14.50;99.90
29849;DHT22;16728;50.832;5.590;2023-08-06T19:20:55;14.50;99.90
29849;DHT22;16728;50.832;5.590;2023-08-06T19:24:00;14.50;99.90